DYess Air Force Base Abilene US
ICAO: KDYS
IATA: DYS
Category: Large
Scheduled Services: No

Elevation: 1789 ft
TransAlt. 18000 ft.

Airport Communications:
ABILENE APP/DEP:125
ATIS:38.57
GND:118.35
PMSV METRO:38.325
ACC COMMAND POST:31.1
AMCC:34.94
PTD:139.3
TWR:133

KDYS Zoom In..

If you have problems with the map follow the link
https://www.worldairports.se/pages/airport.php?
ICAO=KDYS

Runways:

(A) RW 16 length 13500 ft width 300 ft
ILS 109.90 / hdg 161

(B) RW 34 length 13500 ft width 300 ft
ILS 109.90 / hdg 341

Location; KDYS
Day. 13 / Time. 12.56 Zulu
* Altimeter: 29.90
* Temperature: 07° c. 44.6°f.
* Wind from: 260° Speed 05 kn.
Dewpoint: 01° c.
Visibility: 10 Statute Miles.
Clouds: Clear (automated report).

KDYS 131256Z AUTO 26005KT 10SM CLR 07/01 A2990 RMK AO2 SLP122 T00710007 PNO FZRANO $


Wind From 260°
Speed 05 kn.

 
 
jpsmedia worldairports.se 2019   terms of use